sensor_id;sensor_type;location;lat;lon;timestamp;P1;durP1;ratioP1;P2;durP2;ratioP2
40489;SDS011;26196;52.302;10.572;2023-08-08T00:00:15;1.55;;;1.20;;
40489;SDS011;26196;52.302;10.572;2023-08-08T00:04:16;2.17;;;0.98;;
40489;SDS011;26196;52.302;10.572;2023-08-08T00:08:16;5.10;;;1.00;;
40489;SDS011;26196;52.302;10.572;2023-08-08T00:12:17;2.08;;;1.25;;
40489;SDS011;26196;52.302;10.572;2023-08-08T00:16:17;3.40;;;0.80;;
40489;SDS011;26196;52.302;10.572;2023-08-08T00:20:17;2.38;;;0.90;;
40489;SDS011;26196;52.302;10.572;2023-08-08T00:28:55;5.60;;;1.30;;
40489;SDS011;26196;52.302;10.572;2023-08-08T00:32:55;1.55;;;0.90;;
40489;SDS011;26196;52.302;10.572;2023-08-08T00:36:56;1.95;;;1.25;;
40489;SDS011;26196;52.302;10.572;2023-08-08T00:40:56;1.40;;;0.80;;
40489;SDS011;26196;52.302;10.572;2023-08-08T00:44:56;2.13;;;0.80;;
40489;SDS011;26196;52.302;10.572;2023-08-08T00:53:32;1.20;;;0.80;;
40489;SDS011;26196;52.302;10.572;2023-08-08T00:57:33;1.95;;;0.88;;
40489;SDS011;26196;52.302;10.572;2023-08-08T01:01:35;1.38;;;0.85;;
40489;SDS011;26196;52.302;10.572;2023-08-08T01:05:37;1.33;;;0.63;;
40489;SDS011;26196;52.302;10.572;2023-08-08T01:14:15;2.03;;;0.95;;
40489;SDS011;26196;52.302;10.572;2023-08-08T01:18:18;2.30;;;0.88;;
40489;SDS011;26196;52.302;10.572;2023-08-08T01:22:22;2.47;;;0.93;;
40489;SDS011;26196;52.302;10.572;2023-08-08T01:31:22;3.00;;;1.07;;
40489;SDS011;26196;52.302;10.572;2023-08-08T01:35:22;1.73;;;1.13;;
40489;SDS011;26196;52.302;10.572;2023-08-08T01:39:26;2.05;;;1.45;;
40489;SDS011;26196;52.302;10.572;2023-08-08T01:48:10;1.35;;;0.80;;
40489;SDS011;26196;52.302;10.572;2023-08-08T01:52:11;1.00;;;0.80;;
40489;SDS011;26196;52.302;10.572;2023-08-08T02:00:45;1.00;;;0.70;;
40489;SDS011;26196;52.302;10.572;2023-08-08T02:04:46;1.58;;;0.95;;
40489;SDS011;26196;52.302;10.572;2023-08-08T02:08:47;2.40;;;1.10;;
40489;SDS011;26196;52.302;10.572;2023-08-08T02:21:25;1.17;;;1.05;;
40489;SDS011;26196;52.302;10.572;2023-08-08T02:30:03;1.55;;;0.77;;
40489;SDS011;26196;52.302;10.572;2023-08-08T02:34:04;1.00;;;0.60;;
40489;SDS011;26196;52.302;10.572;2023-08-08T02:38:04;1.67;;;0.90;;
40489;SDS011;26196;52.302;10.572;2023-08-08T02:42:05;1.13;;;0.70;;
40489;SDS011;26196;52.302;10.572;2023-08-08T02:46:05;0.85;;;0.60;;
40489;SDS011;26196;52.302;10.572;2023-08-08T02:50:06;1.37;;;0.90;;
40489;SDS011;26196;52.302;10.572;2023-08-08T02:54:07;2.40;;;1.02;;
40489;SDS011;26196;52.302;10.572;2023-08-08T02:58:07;1.25;;;0.80;;
40489;SDS011;26196;52.302;10.572;2023-08-08T03:02:07;2.27;;;0.70;;
40489;SDS011;26196;52.302;10.572;2023-08-08T03:06:08;3.00;;;0.70;;
40489;SDS011;26196;52.302;10.572;2023-08-08T03:10:08;2.67;;;0.88;;
40489;SDS011;26196;52.302;10.572;2023-08-08T03:14:09;1.15;;;0.95;;
40489;SDS011;26196;52.302;10.572;2023-08-08T03:18:09;1.52;;;0.85;;
40489;SDS011;26196;52.302;10.572;2023-08-08T03:26:47;1.70;;;1.00;;
40489;SDS011;26196;52.302;10.572;2023-08-08T03:30:47;2.05;;;0.90;;
40489;SDS011;26196;52.302;10.572;2023-08-08T03:34:48;2.40;;;0.88;;
40489;SDS011;26196;52.302;10.572;2023-08-08T03:38:48;1.63;;;1.20;;
40489;SDS011;26196;52.302;10.572;2023-08-08T03:42:50;1.95;;;0.95;;
40489;SDS011;26196;52.302;10.572;2023-08-08T03:51:25;4.22;;;1.00;;
40489;SDS011;26196;52.302;10.572;2023-08-08T03:55:26;1.40;;;0.80;;
40489;SDS011;26196;52.302;10.572;2023-08-08T03:59:26;1.42;;;0.73;;
40489;SDS011;26196;52.302;10.572;2023-08-08T04:08:04;1.80;;;0.70;;
40489;SDS011;26196;52.302;10.572;2023-08-08T04:12:05;1.05;;;0.73;;
40489;SDS011;26196;52.302;10.572;2023-08-08T04:16:05;2.35;;;1.00;;
40489;SDS011;26196;52.302;10.572;2023-08-08T04:20:07;1.20;;;0.70;;
40489;SDS011;26196;52.302;10.572;2023-08-08T04:24:08;0.95;;;0.70;;
40489;SDS011;26196;52.302;10.572;2023-08-08T04:28:08;2.17;;;1.00;;
40489;SDS011;26196;52.302;10.572;2023-08-08T04:32:08;1.53;;;1.00;;
40489;SDS011;26196;52.302;10.572;2023-08-08T04:44:46;1.33;;;0.95;;
40489;SDS011;26196;52.302;10.572;2023-08-08T04:48:46;1.23;;;0.68;;
40489;SDS011;26196;52.302;10.572;2023-08-08T04:57:24;1.23;;;0.90;;
40489;SDS011;26196;52.302;10.572;2023-08-08T05:01:24;2.45;;;0.85;;
40489;SDS011;26196;52.302;10.572;2023-08-08T05:05:24;2.70;;;1.03;;
40489;SDS011;26196;52.302;10.572;2023-08-08T05:09:25;2.37;;;0.87;;
40489;SDS011;26196;52.302;10.572;2023-08-08T05:13:26;2.28;;;0.77;;
40489;SDS011;26196;52.302;10.572;2023-08-08T05:22:01;2.22;;;0.82;;
40489;SDS011;26196;52.302;10.572;2023-08-08T05:26:01;1.77;;;0.80;;
40489;SDS011;26196;52.302;10.572;2023-08-08T05:34:39;1.05;;;0.70;;
40489;SDS011;26196;52.302;10.572;2023-08-08T05:38:39;1.97;;;0.73;;
40489;SDS011;26196;52.302;10.572;2023-08-08T05:42:40;1.45;;;0.90;;
40489;SDS011;26196;52.302;10.572;2023-08-08T05:46:41;1.93;;;0.83;;
40489;SDS011;26196;52.302;10.572;2023-08-08T05:50:41;1.27;;;0.77;;
40489;SDS011;26196;52.302;10.572;2023-08-08T05:54:41;1.17;;;0.73;;
40489;SDS011;26196;52.302;10.572;2023-08-08T05:58:42;1.10;;;0.40;;
40489;SDS011;26196;52.302;10.572;2023-08-08T06:02:42;2.10;;;1.13;;
40489;SDS011;26196;52.302;10.572;2023-08-08T06:06:42;1.40;;;0.60;;
40489;SDS011;26196;52.302;10.572;2023-08-08T06:15:18;1.60;;;1.20;;
40489;SDS011;26196;52.302;10.572;2023-08-08T06:19:18;1.83;;;0.85;;
40489;SDS011;26196;52.302;10.572;2023-08-08T06:23:19;2.05;;;0.88;;
40489;SDS011;26196;52.302;10.572;2023-08-08T06:31:57;2.35;;;1.30;;
40489;SDS011;26196;52.302;10.572;2023-08-08T06:35:57;1.60;;;1.00;;
40489;SDS011;26196;52.302;10.572;2023-08-08T06:39:58;2.77;;;0.93;;
40489;SDS011;26196;52.302;10.572;2023-08-08T06:43:58;1.17;;;0.90;;
40489;SDS011;26196;52.302;10.572;2023-08-08T06:47:58;1.08;;;0.90;;
40489;SDS011;26196;52.302;10.572;2023-08-08T06:56:36;1.73;;;1.20;;
40489;SDS011;26196;52.302;10.572;2023-08-08T07:00:37;1.73;;;1.00;;
40489;SDS011;26196;52.302;10.572;2023-08-08T07:04:37;1.97;;;1.30;;
40489;SDS011;26196;52.302;10.572;2023-08-08T07:08:38;3.47;;;1.40;;
40489;SDS011;26196;52.302;10.572;2023-08-08T07:12:39;1.40;;;0.85;;
40489;SDS011;26196;52.302;10.572;2023-08-08T07:16:39;2.40;;;1.40;;
40489;SDS011;26196;52.302;10.572;2023-08-08T07:20:40;1.48;;;0.80;;
40489;SDS011;26196;52.302;10.572;2023-08-08T07:24:40;1.03;;;0.80;;
40489;SDS011;26196;52.302;10.572;2023-08-08T07:33:15;2.13;;;1.00;;
40489;SDS011;26196;52.302;10.572;2023-08-08T07:37:15;1.83;;;0.98;;
40489;SDS011;26196;52.302;10.572;2023-08-08T07:41:18;1.43;;;1.03;;
40489;SDS011;26196;52.302;10.572;2023-08-08T07:45:22;3.67;;;1.23;;
40489;SDS011;26196;52.302;10.572;2023-08-08T07:49:22;1.73;;;1.00;;
40489;SDS011;26196;52.302;10.572;2023-08-08T07:53:22;2.80;;;1.10;;
40489;SDS011;26196;52.302;10.572;2023-08-08T07:57:23;3.23;;;1.93;;
40489;SDS011;26196;52.302;10.572;2023-08-08T08:01:26;1.40;;;1.27;;
40489;SDS011;26196;52.302;10.572;2023-08-08T08:05:27;3.28;;;1.50;;
40489;SDS011;26196;52.302;10.572;2023-08-08T08:09:27;3.63;;;1.40;;
40489;SDS011;26196;52.302;10.572;2023-08-08T08:13:28;2.20;;;1.30;;
40489;SDS011;26196;52.302;10.572;2023-08-08T08:17:29;3.72;;;1.60;;
40489;SDS011;26196;52.302;10.572;2023-08-08T08:26:06;2.08;;;1.73;;
40489;SDS011;26196;52.302;10.572;2023-08-08T08:30:07;3.00;;;1.50;;
40489;SDS011;26196;52.302;10.572;2023-08-08T08:34:11;2.45;;;1.40;;
40489;SDS011;26196;52.302;10.572;2023-08-08T08:42:49;2.05;;;1.45;;
40489;SDS011;26196;52.302;10.572;2023-08-08T08:46:50;3.30;;;1.52;;
40489;SDS011;26196;52.302;10.572;2023-08-08T08:50:52;1.67;;;1.20;;
40489;SDS011;26196;52.302;10.572;2023-08-08T08:54:53;2.95;;;1.58;;
40489;SDS011;26196;52.302;10.572;2023-08-08T08:58:53;1.30;;;1.20;;
40489;SDS011;26196;52.302;10.572;2023-08-08T09:02:54;1.45;;;1.20;;
40489;SDS011;26196;52.302;10.572;2023-08-08T09:11:31;2.05;;;1.05;;
40489;SDS011;26196;52.302;10.572;2023-08-08T09:15:32;2.08;;;1.27;;
40489;SDS011;26196;52.302;10.572;2023-08-08T09:19:33;2.05;;;1.35;;
40489;SDS011;26196;52.302;10.572;2023-08-08T09:23:34;1.73;;;1.30;;
40489;SDS011;26196;52.302;10.572;2023-08-08T09:27:37;2.85;;;1.45;;
40489;SDS011;26196;52.302;10.572;2023-08-08T09:36:34;3.03;;;1.20;;
40489;SDS011;26196;52.302;10.572;2023-08-08T09:40:37;1.67;;;1.08;;
40489;SDS011;26196;52.302;10.572;2023-08-08T09:44:37;3.75;;;1.52;;
40489;SDS011;26196;52.302;10.572;2023-08-08T09:48:38;4.28;;;1.30;;
40489;SDS011;26196;52.302;10.572;2023-08-08T09:52:40;1.65;;;1.20;;
40489;SDS011;26196;52.302;10.572;2023-08-08T09:56:42;3.47;;;1.30;;
40489;SDS011;26196;52.302;10.572;2023-08-08T10:00:43;2.17;;;1.02;;
40489;SDS011;26196;52.302;10.572;2023-08-08T10:09:18;2.50;;;1.20;;
40489;SDS011;26196;52.302;10.572;2023-08-08T10:13:21;2.28;;;1.00;;
40489;SDS011;26196;52.302;10.572;2023-08-08T10:21:59;2.75;;;1.73;;
40489;SDS011;26196;52.302;10.572;2023-08-08T10:26:04;4.78;;;1.15;;
40489;SDS011;26196;52.302;10.572;2023-08-08T10:30:06;2.67;;;1.75;;
40489;SDS011;26196;52.302;10.572;2023-08-08T10:34:12;3.05;;;1.58;;
40489;SDS011;26196;52.302;10.572;2023-08-08T10:38:12;2.58;;;1.40;;
40489;SDS011;26196;52.302;10.572;2023-08-08T10:42:17;2.28;;;1.70;;
40489;SDS011;26196;52.302;10.572;2023-08-08T10:46:22;3.63;;;2.05;;
40489;SDS011;26196;52.302;10.572;2023-08-08T10:50:33;2.20;;;1.55;;
40489;SDS011;26196;52.302;10.572;2023-08-08T10:54:39;2.03;;;1.35;;
40489;SDS011;26196;52.302;10.572;2023-08-08T11:03:17;2.92;;;1.80;;
40489;SDS011;26196;52.302;10.572;2023-08-08T11:07:18;2.05;;;1.50;;
40489;SDS011;26196;52.302;10.572;2023-08-08T11:15:56;5.88;;;1.92;;
40489;SDS011;26196;52.302;10.572;2023-08-08T11:19:56;2.95;;;1.95;;
40489;SDS011;26196;52.302;10.572;2023-08-08T11:23:57;2.07;;;1.40;;
40489;SDS011;26196;52.302;10.572;2023-08-08T11:27:57;2.55;;;1.52;;
40489;SDS011;26196;52.302;10.572;2023-08-08T11:32:01;4.60;;;1.50;;
40489;SDS011;26196;52.302;10.572;2023-08-08T11:36:05;2.75;;;1.55;;
40489;SDS011;26196;52.302;10.572;2023-08-08T11:40:07;1.67;;;1.27;;
40489;SDS011;26196;52.302;10.572;2023-08-08T11:44:08;2.42;;;1.65;;
40489;SDS011;26196;52.302;10.572;2023-08-08T11:52:46;5.72;;;1.55;;
40489;SDS011;26196;52.302;10.572;2023-08-08T11:56:47;2.42;;;1.70;;
40489;SDS011;26196;52.302;10.572;2023-08-08T12:00:47;2.60;;;1.35;;
40489;SDS011;26196;52.302;10.572;2023-08-08T12:09:22;1.60;;;1.27;;
40489;SDS011;26196;52.302;10.572;2023-08-08T12:13:23;2.97;;;1.40;;
40489;SDS011;26196;52.302;10.572;2023-08-08T12:17:26;2.38;;;1.67;;
40489;SDS011;26196;52.302;10.572;2023-08-08T12:21:27;4.45;;;1.40;;
40489;SDS011;26196;52.302;10.572;2023-08-08T12:25:27;1.80;;;1.27;;
40489;SDS011;26196;52.302;10.572;2023-08-08T12:29:27;3.55;;;1.70;;
40489;SDS011;26196;52.302;10.572;2023-08-08T12:33:28;1.30;;;1.13;;
40489;SDS011;26196;52.302;10.572;2023-08-08T12:37:31;1.80;;;1.23;;
40489;SDS011;26196;52.302;10.572;2023-08-08T12:41:32;1.85;;;1.50;;
40489;SDS011;26196;52.302;10.572;2023-08-08T12:45:32;2.80;;;1.10;;
40489;SDS011;26196;52.302;10.572;2023-08-08T12:49:33;2.58;;;1.10;;
40489;SDS011;26196;52.302;10.572;2023-08-08T12:53:33;1.52;;;0.88;;
40489;SDS011;26196;52.302;10.572;2023-08-08T12:57:34;2.85;;;1.75;;
40489;SDS011;26196;52.302;10.572;2023-08-08T13:01:34;3.42;;;0.93;;
40489;SDS011;26196;52.302;10.572;2023-08-08T13:10:13;2.42;;;1.25;;
40489;SDS011;26196;52.302;10.572;2023-08-08T13:14:13;2.92;;;1.10;;
40489;SDS011;26196;52.302;10.572;2023-08-08T13:18:14;1.65;;;1.00;;
40489;SDS011;26196;52.302;10.572;2023-08-08T13:22:14;1.70;;;0.80;;
40489;SDS011;26196;52.302;10.572;2023-08-08T13:26:15;1.75;;;1.05;;
40489;SDS011;26196;52.302;10.572;2023-08-08T13:30:15;2.25;;;0.90;;
40489;SDS011;26196;52.302;10.572;2023-08-08T13:34:16;2.25;;;1.20;;
40489;SDS011;26196;52.302;10.572;2023-08-08T13:38:16;1.35;;;0.68;;
40489;SDS011;26196;52.302;10.572;2023-08-08T13:42:17;0.93;;;0.60;;
40489;SDS011;26196;52.302;10.572;2023-08-08T13:46:17;1.52;;;0.80;;
40489;SDS011;26196;52.302;10.572;2023-08-08T13:50:17;2.55;;;1.00;;
40489;SDS011;26196;52.302;10.572;2023-08-08T13:54:18;2.83;;;0.50;;
40489;SDS011;26196;52.302;10.572;2023-08-08T14:02:52;1.83;;;0.70;;
40489;SDS011;26196;52.302;10.572;2023-08-08T14:06:53;1.57;;;0.63;;
40489;SDS011;26196;52.302;10.572;2023-08-08T14:10:53;1.53;;;0.80;;
40489;SDS011;26196;52.302;10.572;2023-08-08T14:19:33;0.60;;;0.35;;
40489;SDS011;26196;52.302;10.572;2023-08-08T14:23:33;2.08;;;0.60;;
40489;SDS011;26196;52.302;10.572;2023-08-08T14:27:34;2.10;;;0.77;;
40489;SDS011;26196;52.302;10.572;2023-08-08T14:31:34;0.77;;;0.50;;
40489;SDS011;26196;52.302;10.572;2023-08-08T14:35:34;2.50;;;0.80;;
40489;SDS011;26196;52.302;10.572;2023-08-08T14:44:12;1.17;;;0.68;;
40489;SDS011;26196;52.302;10.572;2023-08-08T14:48:13;0.77;;;0.30;;
40489;SDS011;26196;52.302;10.572;2023-08-08T14:52:13;0.77;;;0.57;;
40489;SDS011;26196;52.302;10.572;2023-08-08T14:56:13;0.85;;;0.50;;
40489;SDS011;26196;52.302;10.572;2023-08-08T15:00:14;1.40;;;0.50;;
40489;SDS011;26196;52.302;10.572;2023-08-08T15:04:14;0.73;;;0.70;;
40489;SDS011;26196;52.302;10.572;2023-08-08T15:08:15;1.05;;;0.88;;
40489;SDS011;26196;52.302;10.572;2023-08-08T15:12:16;1.92;;;0.73;;
40489;SDS011;26196;52.302;10.572;2023-08-08T15:16:17;1.50;;;0.70;;
40489;SDS011;26196;52.302;10.572;2023-08-08T15:20:17;1.95;;;0.60;;
40489;SDS011;26196;52.302;10.572;2023-08-08T15:24:17;1.07;;;0.40;;
40489;SDS011;26196;52.302;10.572;2023-08-08T15:28:18;0.90;;;0.40;;
40489;SDS011;26196;52.302;10.572;2023-08-08T15:32:18;1.43;;;0.60;;
40489;SDS011;26196;52.302;10.572;2023-08-08T15:36:18;0.70;;;0.60;;
40489;SDS011;26196;52.302;10.572;2023-08-08T15:40:20;1.92;;;0.63;;
40489;SDS011;26196;52.302;10.572;2023-08-08T15:44:21;1.75;;;0.68;;
40489;SDS011;26196;52.302;10.572;2023-08-08T15:48:21;1.37;;;0.43;;
40489;SDS011;26196;52.302;10.572;2023-08-08T15:52:21;1.23;;;0.60;;
40489;SDS011;26196;52.302;10.572;2023-08-08T15:56:22;1.20;;;0.50;;
40489;SDS011;26196;52.302;10.572;2023-08-08T16:04:56;2.13;;;0.68;;
40489;SDS011;26196;52.302;10.572;2023-08-08T16:08:57;1.13;;;0.40;;
40489;SDS011;26196;52.302;10.572;2023-08-08T16:12:58;0.77;;;0.50;;
40489;SDS011;26196;52.302;10.572;2023-08-08T16:16:58;3.03;;;0.60;;
40489;SDS011;26196;52.302;10.572;2023-08-08T16:20:58;1.60;;;0.57;;
40489;SDS011;26196;52.302;10.572;2023-08-08T16:29:34;0.88;;;0.40;;
40489;SDS011;26196;52.302;10.572;2023-08-08T16:33:35;0.90;;;0.47;;
40489;SDS011;26196;52.302;10.572;2023-08-08T16:42:12;0.70;;;0.35;;
40489;SDS011;26196;52.302;10.572;2023-08-08T16:46:13;1.10;;;0.40;;
40489;SDS011;26196;52.302;10.572;2023-08-08T16:50:13;1.23;;;0.50;;
40489;SDS011;26196;52.302;10.572;2023-08-08T16:58:48;1.00;;;0.38;;
40489;SDS011;26196;52.302;10.572;2023-08-08T17:02:49;0.90;;;0.40;;
40489;SDS011;26196;52.302;10.572;2023-08-08T17:06:49;1.03;;;0.40;;
40489;SDS011;26196;52.302;10.572;2023-08-08T17:15:24;1.50;;;0.52;;
40489;SDS011;26196;52.302;10.572;2023-08-08T17:19:24;1.05;;;0.40;;
40489;SDS011;26196;52.302;10.572;2023-08-08T17:23:24;1.15;;;0.45;;
40489;SDS011;26196;52.302;10.572;2023-08-08T17:32:03;1.83;;;0.40;;
40489;SDS011;26196;52.302;10.572;2023-08-08T17:40:37;0.43;;;0.30;;
40489;SDS011;26196;52.302;10.572;2023-08-08T17:44:38;1.45;;;0.68;;
40489;SDS011;26196;52.302;10.572;2023-08-08T17:48:38;2.60;;;0.53;;
40489;SDS011;26196;52.302;10.572;2023-08-08T17:57:16;2.65;;;0.70;;
40489;SDS011;26196;52.302;10.572;2023-08-08T18:01:17;0.95;;;0.50;;
40489;SDS011;26196;52.302;10.572;2023-08-08T18:05:17;1.00;;;0.50;;
40489;SDS011;26196;52.302;10.572;2023-08-08T18:09:17;1.37;;;0.53;;
40489;SDS011;26196;52.302;10.572;2023-08-08T18:13:18;1.85;;;0.50;;
40489;SDS011;26196;52.302;10.572;2023-08-08T18:17:19;2.00;;;0.70;;
40489;SDS011;26196;52.302;10.572;2023-08-08T18:21:21;1.67;;;0.70;;
40489;SDS011;26196;52.302;10.572;2023-08-08T18:30:01;0.88;;;0.70;;
40489;SDS011;26196;52.302;10.572;2023-08-08T18:34:01;1.23;;;0.47;;
40489;SDS011;26196;52.302;10.572;2023-08-08T18:38:02;1.02;;;0.60;;
40489;SDS011;26196;52.302;10.572;2023-08-08T18:42:03;1.02;;;0.90;;
40489;SDS011;26196;52.302;10.572;2023-08-08T18:46:04;0.95;;;0.52;;
40489;SDS011;26196;52.302;10.572;2023-08-08T18:54:39;1.08;;;0.50;;
40489;SDS011;26196;52.302;10.572;2023-08-08T18:58:40;1.90;;;0.60;;
40489;SDS011;26196;52.302;10.572;2023-08-08T19:02:41;1.15;;;0.50;;
40489;SDS011;26196;52.302;10.572;2023-08-08T19:11:16;0.40;;;0.40;;
40489;SDS011;26196;52.302;10.572;2023-08-08T19:15:17;2.47;;;0.75;;
40489;SDS011;26196;52.302;10.572;2023-08-08T19:19:17;1.67;;;0.63;;
40489;SDS011;26196;52.302;10.572;2023-08-08T19:23:18;0.95;;;0.40;;
40489;SDS011;26196;52.302;10.572;2023-08-08T19:27:18;1.07;;;0.77;;
40489;SDS011;26196;52.302;10.572;2023-08-08T19:31:19;1.23;;;0.75;;
40489;SDS011;26196;52.302;10.572;2023-08-08T19:35:20;1.23;;;0.50;;
40489;SDS011;26196;52.302;10.572;2023-08-08T19:39:20;1.67;;;1.23;;
40489;SDS011;26196;52.302;10.572;2023-08-08T19:43:20;2.00;;;0.55;;
40489;SDS011;26196;52.302;10.572;2023-08-08T19:47:21;1.25;;;0.40;;
40489;SDS011;26196;52.302;10.572;2023-08-08T19:51:21;0.70;;;0.40;;
40489;SDS011;26196;52.302;10.572;2023-08-08T19:59:57;0.57;;;0.53;;
40489;SDS011;26196;52.302;10.572;2023-08-08T20:03:58;1.42;;;0.77;;
40489;SDS011;26196;52.302;10.572;2023-08-08T20:12:36;0.95;;;0.65;;
40489;SDS011;26196;52.302;10.572;2023-08-08T20:16:36;0.60;;;0.35;;
40489;SDS011;26196;52.302;10.572;2023-08-08T20:20:36;0.55;;;0.30;;
40489;SDS011;26196;52.302;10.572;2023-08-08T20:24:38;0.60;;;0.50;;
40489;SDS011;26196;52.302;10.572;2023-08-08T20:28:38;1.23;;;0.50;;
40489;SDS011;26196;52.302;10.572;2023-08-08T20:32:40;0.65;;;0.30;;
40489;SDS011;26196;52.302;10.572;2023-08-08T20:36:41;0.75;;;0.40;;
40489;SDS011;26196;52.302;10.572;2023-08-08T20:40:42;1.42;;;0.60;;
40489;SDS011;26196;52.302;10.572;2023-08-08T20:44:42;0.75;;;0.43;;
40489;SDS011;26196;52.302;10.572;2023-08-08T20:48:42;0.90;;;0.70;;
40489;SDS011;26196;52.302;10.572;2023-08-08T20:52:43;0.80;;;0.45;;
40489;SDS011;26196;52.302;10.572;2023-08-08T20:56:44;1.27;;;0.57;;
40489;SDS011;26196;52.302;10.572;2023-08-08T21:00:47;0.77;;;0.43;;
40489;SDS011;26196;52.302;10.572;2023-08-08T21:04:47;0.50;;;0.38;;
40489;SDS011;26196;52.302;10.572;2023-08-08T21:08:48;1.25;;;0.60;;
40489;SDS011;26196;52.302;10.572;2023-08-08T21:12:48;0.43;;;0.32;;
40489;SDS011;26196;52.302;10.572;2023-08-08T21:16:49;1.92;;;0.50;;
40489;SDS011;26196;52.302;10.572;2023-08-08T21:25:26;1.35;;;0.70;;
40489;SDS011;26196;52.302;10.572;2023-08-08T21:29:27;0.80;;;0.47;;
40489;SDS011;26196;52.302;10.572;2023-08-08T21:33:27;0.83;;;0.67;;
40489;SDS011;26196;52.302;10.572;2023-08-08T21:42:03;0.90;;;0.57;;
40489;SDS011;26196;52.302;10.572;2023-08-08T21:46:04;0.90;;;0.60;;
40489;SDS011;26196;52.302;10.572;2023-08-08T21:50:04;1.80;;;0.88;;
40489;SDS011;26196;52.302;10.572;2023-08-08T21:54:05;1.50;;;0.75;;
40489;SDS011;26196;52.302;10.572;2023-08-08T22:02:41;1.10;;;0.70;;
40489;SDS011;26196;52.302;10.572;2023-08-08T22:06:41;1.33;;;0.90;;
40489;SDS011;26196;52.302;10.572;2023-08-08T22:10:42;1.10;;;0.93;;
40489;SDS011;26196;52.302;10.572;2023-08-08T22:14:42;1.45;;;0.82;;
40489;SDS011;26196;52.302;10.572;2023-08-08T22:18:42;1.73;;;0.63;;
40489;SDS011;26196;52.302;10.572;2023-08-08T22:22:43;1.25;;;0.80;;
40489;SDS011;26196;52.302;10.572;2023-08-08T22:31:18;0.93;;;0.77;;
40489;SDS011;26196;52.302;10.572;2023-08-08T22:35:18;1.17;;;0.70;;
40489;SDS011;26196;52.302;10.572;2023-08-08T22:39:18;1.25;;;0.70;;
40489;SDS011;26196;52.302;10.572;2023-08-08T22:43:19;1.20;;;1.03;;
40489;SDS011;26196;52.302;10.572;2023-08-08T22:51:56;1.33;;;0.68;;
40489;SDS011;26196;52.302;10.572;2023-08-08T22:55:57;0.87;;;0.53;;
40489;SDS011;26196;52.302;10.572;2023-08-08T22:59:57;1.35;;;0.80;;
40489;SDS011;26196;52.302;10.572;2023-08-08T23:03:57;0.88;;;0.57;;
40489;SDS011;26196;52.302;10.572;2023-08-08T23:07:58;1.30;;;0.53;;
40489;SDS011;26196;52.302;10.572;2023-08-08T23:11:58;2.20;;;0.93;;
40489;SDS011;26196;52.302;10.572;2023-08-08T23:15:58;0.82;;;0.60;;
40489;SDS011;26196;52.302;10.572;2023-08-08T23:24:33;1.33;;;0.68;;
40489;SDS011;26196;52.302;10.572;2023-08-08T23:28:34;0.73;;;0.50;;
40489;SDS011;26196;52.302;10.572;2023-08-08T23:32:34;0.60;;;0.50;;
40489;SDS011;26196;52.302;10.572;2023-08-08T23:36:36;0.93;;;0.68;;
40489;SDS011;26196;52.302;10.572;2023-08-08T23:40:36;1.17;;;0.60;;
40489;SDS011;26196;52.302;10.572;2023-08-08T23:44:37;1.57;;;0.70;;
40489;SDS011;26196;52.302;10.572;2023-08-08T23:48:37;2.63;;;0.60;;
40489;SDS011;26196;52.302;10.572;2023-08-08T23:52:38;0.80;;;0.50;;
